sensor_id;sensor_type;location;lat;lon;timestamp;temperature;humidity
4010;DHT22;2019;48.200;11.548;2022-07-10T00:00:16;22.00;57.00
4010;DHT22;2019;48.200;11.548;2022-07-10T00:02:43;22.00;57.00
4010;DHT22;2019;48.200;11.548;2022-07-10T00:05:10;22.00;57.00
4010;DHT22;2019;48.200;11.548;2022-07-10T00:07:36;21.90;57.00
4010;DHT22;2019;48.200;11.548;2022-07-10T00:10:02;21.90;57.10
4010;DHT22;2019;48.200;11.548;2022-07-10T00:12:28;21.90;57.40
4010;DHT22;2019;48.200;11.548;2022-07-10T00:14:54;21.90;57.80
4010;DHT22;2019;48.200;11.548;2022-07-10T00:17:19;21.80;58.10
4010;DHT22;2019;48.200;11.548;2022-07-10T00:19:45;21.80;58.60
4010;DHT22;2019;48.200;11.548;2022-07-10T00:22:11;21.80;58.90
4010;DHT22;2019;48.200;11.548;2022-07-10T00:24:36;21.70;59.20
4010;DHT22;2019;48.200;11.548;2022-07-10T00:27:02;21.70;59.60
4010;DHT22;2019;48.200;11.548;2022-07-10T00:29:28;21.70;59.80
4010;DHT22;2019;48.200;11.548;2022-07-10T00:31:53;21.60;59.90
4010;DHT22;2019;48.200;11.548;2022-07-10T00:34:19;21.60;60.00
4010;DHT22;2019;48.200;11.548;2022-07-10T00:36:44;21.50;60.10
4010;DHT22;2019;48.200;11.548;2022-07-10T00:39:10;21.50;60.30
4010;DHT22;2019;48.200;11.548;2022-07-10T00:41:36;21.50;60.60
4010;DHT22;2019;48.200;11.548;2022-07-10T00:44:03;21.40;61.00
4010;DHT22;2019;48.200;11.548;2022-07-10T00:46:32;21.40;61.00
4010;DHT22;2019;48.200;11.548;2022-07-10T00:48:58;21.30;60.90
4010;DHT22;2019;48.200;11.548;2022-07-10T00:51:25;21.30;61.30
4010;DHT22;2019;48.200;11.548;2022-07-10T00:53:52;21.30;61.40
4010;DHT22;2019;48.200;11.548;2022-07-10T00:56:21;21.30;61.40
4010;DHT22;2019;48.200;11.548;2022-07-10T00:58:48;21.20;61.80
4010;DHT22;2019;48.200;11.548;2022-07-10T01:01:13;21.20;62.10
4010;DHT22;2019;48.200;11.548;2022-07-10T01:03:40;21.20;62.30
4010;DHT22;2019;48.200;11.548;2022-07-10T01:06:05;21.10;62.60
4010;DHT22;2019;48.200;11.548;2022-07-10T01:08:31;21.10;63.00
4010;DHT22;2019;48.200;11.548;2022-07-10T01:10:58;21.10;63.40
4010;DHT22;2019;48.200;11.548;2022-07-10T01:13:24;21.00;63.70
4010;DHT22;2019;48.200;11.548;2022-07-10T01:15:49;21.00;64.10
4010;DHT22;2019;48.200;11.548;2022-07-10T01:18:16;21.00;64.30
4010;DHT22;2019;48.200;11.548;2022-07-10T01:20:41;21.00;64.70
4010;DHT22;2019;48.200;11.548;2022-07-10T01:23:07;20.90;65.00
4010;DHT22;2019;48.200;11.548;2022-07-10T01:25:33;20.90;65.40
4010;DHT22;2019;48.200;11.548;2022-07-10T01:27:58;20.90;65.60
4010;DHT22;2019;48.200;11.548;2022-07-10T01:30:25;20.80;65.60
4010;DHT22;2019;48.200;11.548;2022-07-10T01:32:51;20.90;66.00
4010;DHT22;2019;48.200;11.548;2022-07-10T01:35:17;20.80;66.00
4010;DHT22;2019;48.200;11.548;2022-07-10T01:37:43;20.80;66.30
4010;DHT22;2019;48.200;11.548;2022-07-10T01:40:09;20.80;66.50
4010;DHT22;2019;48.200;11.548;2022-07-10T01:42:35;20.80;66.60
4010;DHT22;2019;48.200;11.548;2022-07-10T01:45:03;20.80;66.70
4010;DHT22;2019;48.200;11.548;2022-07-10T01:47:29;20.80;66.90
4010;DHT22;2019;48.200;11.548;2022-07-10T01:49:55;20.70;66.80
4010;DHT22;2019;48.200;11.548;2022-07-10T01:52:21;20.70;67.00
4010;DHT22;2019;48.200;11.548;2022-07-10T01:54:48;20.60;66.90
4010;DHT22;2019;48.200;11.548;2022-07-10T01:57:14;20.70;67.00
4010;DHT22;2019;48.200;11.548;2022-07-10T01:59:40;20.60;67.10
4010;DHT22;2019;48.200;11.548;2022-07-10T02:02:06;20.60;67.30
4010;DHT22;2019;48.200;11.548;2022-07-10T02:04:32;20.50;67.50
4010;DHT22;2019;48.200;11.548;2022-07-10T02:07:11;20.50;67.80
4010;DHT22;2019;48.200;11.548;2022-07-10T02:09:37;20.50;68.10
4010;DHT22;2019;48.200;11.548;2022-07-10T02:12:12;20.50;68.00
4010;DHT22;2019;48.200;11.548;2022-07-10T02:14:39;20.50;68.20
4010;DHT22;2019;48.200;11.548;2022-07-10T02:17:05;20.40;68.90
4010;DHT22;2019;48.200;11.548;2022-07-10T02:19:31;20.40;68.70
4010;DHT22;2019;48.200;11.548;2022-07-10T02:21:58;20.30;68.70
4010;DHT22;2019;48.200;11.548;2022-07-10T02:24:24;20.30;68.90
4010;DHT22;2019;48.200;11.548;2022-07-10T02:26:49;20.20;68.90
4010;DHT22;2019;48.200;11.548;2022-07-10T02:29:15;20.20;69.00
4010;DHT22;2019;48.200;11.548;2022-07-10T02:31:41;20.10;69.00
4010;DHT22;2019;48.200;11.548;2022-07-10T02:34:08;20.10;69.10
4010;DHT22;2019;48.200;11.548;2022-07-10T02:36:34;20.00;69.20
4010;DHT22;2019;48.200;11.548;2022-07-10T02:39:00;20.00;69.40
4010;DHT22;2019;48.200;11.548;2022-07-10T02:41:26;19.90;69.60
4010;DHT22;2019;48.200;11.548;2022-07-10T02:43:52;19.90;69.80
4010;DHT22;2019;48.200;11.548;2022-07-10T02:46:17;19.90;70.10
4010;DHT22;2019;48.200;11.548;2022-07-10T02:48:43;19.90;70.40
4010;DHT22;2019;48.200;11.548;2022-07-10T02:51:09;19.90;70.70
4010;DHT22;2019;48.200;11.548;2022-07-10T02:53:34;19.80;70.80
4010;DHT22;2019;48.200;11.548;2022-07-10T02:56:00;19.80;71.00
4010;DHT22;2019;48.200;11.548;2022-07-10T02:58:25;19.80;71.20
4010;DHT22;2019;48.200;11.548;2022-07-10T03:00:51;19.80;71.20
4010;DHT22;2019;48.200;11.548;2022-07-10T03:03:17;19.80;71.30
4010;DHT22;2019;48.200;11.548;2022-07-10T03:05:46;19.80;71.50
4010;DHT22;2019;48.200;11.548;2022-07-10T03:08:12;19.80;71.60
4010;DHT22;2019;48.200;11.548;2022-07-10T03:10:38;19.70;71.70
4010;DHT22;2019;48.200;11.548;2022-07-10T03:13:04;19.70;71.80
4010;DHT22;2019;48.200;11.548;2022-07-10T03:15:29;19.70;72.00
4010;DHT22;2019;48.200;11.548;2022-07-10T03:17:55;19.70;72.10
4010;DHT22;2019;48.200;11.548;2022-07-10T03:20:21;19.70;72.20
4010;DHT22;2019;48.200;11.548;2022-07-10T03:22:46;19.60;72.10
4010;DHT22;2019;48.200;11.548;2022-07-10T03:25:12;19.60;72.10
4010;DHT22;2019;48.200;11.548;2022-07-10T03:27:39;19.50;72.10
4010;DHT22;2019;48.200;11.548;2022-07-10T03:30:05;19.50;73.00
4010;DHT22;2019;48.200;11.548;2022-07-10T03:32:31;19.50;72.30
4010;DHT22;2019;48.200;11.548;2022-07-10T03:34:57;19.50;72.40
4010;DHT22;2019;48.200;11.548;2022-07-10T03:37:23;19.50;72.60
4010;DHT22;2019;48.200;11.548;2022-07-10T03:39:49;19.40;72.60
4010;DHT22;2019;48.200;11.548;2022-07-10T03:42:14;19.50;72.70
4010;DHT22;2019;48.200;11.548;2022-07-10T03:44:40;19.50;72.80
4010;DHT22;2019;48.200;11.548;2022-07-10T03:47:06;19.50;73.00
4010;DHT22;2019;48.200;11.548;2022-07-10T03:49:32;19.50;73.00
4010;DHT22;2019;48.200;11.548;2022-07-10T03:52:01;19.40;73.00
4010;DHT22;2019;48.200;11.548;2022-07-10T03:54:28;19.40;73.10
4010;DHT22;2019;48.200;11.548;2022-07-10T03:56:55;19.40;73.20
4010;DHT22;2019;48.200;11.548;2022-07-10T03:59:39;19.30;73.30
4010;DHT22;2019;48.200;11.548;2022-07-10T04:02:05;19.30;73.40
4010;DHT22;2019;48.200;11.548;2022-07-10T04:04:30;19.30;73.80
4010;DHT22;2019;48.200;11.548;2022-07-10T04:06:56;19.30;74.00
4010;DHT22;2019;48.200;11.548;2022-07-10T04:09:22;19.30;74.20
4010;DHT22;2019;48.200;11.548;2022-07-10T04:11:47;19.30;74.40
4010;DHT22;2019;48.200;11.548;2022-07-10T04:14:13;19.30;74.40
4010;DHT22;2019;48.200;11.548;2022-07-10T04:16:38;19.30;74.60
4010;DHT22;2019;48.200;11.548;2022-07-10T04:19:04;19.30;74.70
4010;DHT22;2019;48.200;11.548;2022-07-10T04:21:30;19.30;74.80
4010;DHT22;2019;48.200;11.548;2022-07-10T04:23:55;19.30;74.90
4010;DHT22;2019;48.200;11.548;2022-07-10T04:26:21;19.30;75.00
4010;DHT22;2019;48.200;11.548;2022-07-10T04:28:46;19.30;75.10
4010;DHT22;2019;48.200;11.548;2022-07-10T04:31:12;19.30;75.20
4010;DHT22;2019;48.200;11.548;2022-07-10T04:33:37;19.30;75.20
4010;DHT22;2019;48.200;11.548;2022-07-10T04:36:03;19.30;75.20
4010;DHT22;2019;48.200;11.548;2022-07-10T04:38:29;19.40;75.40
4010;DHT22;2019;48.200;11.548;2022-07-10T04:40:54;19.40;75.30
4010;DHT22;2019;48.200;11.548;2022-07-10T04:43:20;19.40;75.30
4010;DHT22;2019;48.200;11.548;2022-07-10T04:45:46;19.40;75.30
4010;DHT22;2019;48.200;11.548;2022-07-10T04:48:12;19.40;75.40
4010;DHT22;2019;48.200;11.548;2022-07-10T04:50:37;19.40;75.40
4010;DHT22;2019;48.200;11.548;2022-07-10T04:53:03;19.40;75.50
4010;DHT22;2019;48.200;11.548;2022-07-10T04:55:29;19.40;76.10
4010;DHT22;2019;48.200;11.548;2022-07-10T04:57:54;19.40;75.20
4010;DHT22;2019;48.200;11.548;2022-07-10T05:00:20;19.40;75.20
4010;DHT22;2019;48.200;11.548;2022-07-10T05:02:46;19.40;75.20
4010;DHT22;2019;48.200;11.548;2022-07-10T05:05:11;19.40;75.10
4010;DHT22;2019;48.200;11.548;2022-07-10T05:07:37;19.40;75.80
4010;DHT22;2019;48.200;11.548;2022-07-10T05:10:03;19.30;74.80
4010;DHT22;2019;48.200;11.548;2022-07-10T05:12:28;19.30;74.90
4010;DHT22;2019;48.200;11.548;2022-07-10T05:14:54;19.30;74.90
4010;DHT22;2019;48.200;11.548;2022-07-10T05:17:20;19.30;75.00
4010;DHT22;2019;48.200;11.548;2022-07-10T05:19:46;19.30;75.10
4010;DHT22;2019;48.200;11.548;2022-07-10T05:22:11;19.30;75.00
4010;DHT22;2019;48.200;11.548;2022-07-10T05:24:37;19.30;75.00
4010;DHT22;2019;48.200;11.548;2022-07-10T05:27:03;19.30;75.10
4010;DHT22;2019;48.200;11.548;2022-07-10T05:29:28;19.30;75.00
4010;DHT22;2019;48.200;11.548;2022-07-10T05:31:54;19.30;74.90
4010;DHT22;2019;48.200;11.548;2022-07-10T05:34:20;19.30;75.00
4010;DHT22;2019;48.200;11.548;2022-07-10T05:36:46;19.30;75.00
4010;DHT22;2019;48.200;11.548;2022-07-10T05:39:11;19.30;74.60
4010;DHT22;2019;48.200;11.548;2022-07-10T05:41:37;19.30;74.50
4010;DHT22;2019;48.200;11.548;2022-07-10T05:44:03;19.30;74.40
4010;DHT22;2019;48.200;11.548;2022-07-10T05:46:28;19.30;74.30
4010;DHT22;2019;48.200;11.548;2022-07-10T05:48:54;19.30;74.20
4010;DHT22;2019;48.200;11.548;2022-07-10T05:51:20;19.30;74.10
4010;DHT22;2019;48.200;11.548;2022-07-10T05:53:46;19.40;74.10
4010;DHT22;2019;48.200;11.548;2022-07-10T05:56:11;19.40;74.20
4010;DHT22;2019;48.200;11.548;2022-07-10T05:58:37;19.40;74.20
4010;DHT22;2019;48.200;11.548;2022-07-10T06:01:03;19.40;74.80
4010;DHT22;2019;48.200;11.548;2022-07-10T06:03:28;19.50;74.20
4010;DHT22;2019;48.200;11.548;2022-07-10T06:05:54;19.50;74.10
4010;DHT22;2019;48.200;11.548;2022-07-10T06:08:19;19.50;73.90
4010;DHT22;2019;48.200;11.548;2022-07-10T06:10:45;19.50;73.90
4010;DHT22;2019;48.200;11.548;2022-07-10T06:13:11;19.50;73.60
4010;DHT22;2019;48.200;11.548;2022-07-10T06:15:37;19.50;73.30
4010;DHT22;2019;48.200;11.548;2022-07-10T06:18:03;19.50;73.20
4010;DHT22;2019;48.200;11.548;2022-07-10T06:20:28;19.50;73.80
4010;DHT22;2019;48.200;11.548;2022-07-10T06:22:54;19.50;73.10
4010;DHT22;2019;48.200;11.548;2022-07-10T06:25:20;19.50;73.20
4010;DHT22;2019;48.200;11.548;2022-07-10T06:27:46;19.50;73.30
4010;DHT22;2019;48.200;11.548;2022-07-10T06:30:11;19.50;73.40
4010;DHT22;2019;48.200;11.548;2022-07-10T06:32:38;19.50;73.40
4010;DHT22;2019;48.200;11.548;2022-07-10T06:35:04;19.50;73.30
4010;DHT22;2019;48.200;11.548;2022-07-10T06:37:31;19.40;73.10
4010;DHT22;2019;48.200;11.548;2022-07-10T06:39:56;19.40;73.10
4010;DHT22;2019;48.200;11.548;2022-07-10T06:42:22;19.50;73.20
4010;DHT22;2019;48.200;11.548;2022-07-10T06:44:48;19.40;73.10
4010;DHT22;2019;48.200;11.548;2022-07-10T06:47:16;19.40;73.10
4010;DHT22;2019;48.200;11.548;2022-07-10T06:50:02;19.40;72.90
4010;DHT22;2019;48.200;11.548;2022-07-10T06:52:28;19.40;73.00
4010;DHT22;2019;48.200;11.548;2022-07-10T06:54:53;19.40;72.90
4010;DHT22;2019;48.200;11.548;2022-07-10T06:57:20;19.50;73.10
4010;DHT22;2019;48.200;11.548;2022-07-10T06:59:46;19.50;73.00
4010;DHT22;2019;48.200;11.548;2022-07-10T07:02:11;19.50;72.80
4010;DHT22;2019;48.200;11.548;2022-07-10T07:04:37;19.50;72.60
4010;DHT22;2019;48.200;11.548;2022-07-10T07:07:03;19.50;72.50
4010;DHT22;2019;48.200;11.548;2022-07-10T07:09:29;19.50;72.40
4010;DHT22;2019;48.200;11.548;2022-07-10T07:11:54;19.60;72.70
4010;DHT22;2019;48.200;11.548;2022-07-10T07:14:20;19.60;72.80
4010;DHT22;2019;48.200;11.548;2022-07-10T07:16:45;19.70;72.90
4010;DHT22;2019;48.200;11.548;2022-07-10T07:19:22;19.70;72.80
4010;DHT22;2019;48.200;11.548;2022-07-10T07:21:56;19.70;72.60
4010;DHT22;2019;48.200;11.548;2022-07-10T07:24:40;19.70;72.40
4010;DHT22;2019;48.200;11.548;2022-07-10T07:27:06;19.80;72.60
4010;DHT22;2019;48.200;11.548;2022-07-10T07:29:31;19.90;72.90
4010;DHT22;2019;48.200;11.548;2022-07-10T07:31:57;20.00;72.80
4010;DHT22;2019;48.200;11.548;2022-07-10T07:34:24;20.00;72.20
4010;DHT22;2019;48.200;11.548;2022-07-10T07:36:49;20.10;72.00
4010;DHT22;2019;48.200;11.548;2022-07-10T07:39:16;20.10;71.60
4010;DHT22;2019;48.200;11.548;2022-07-10T07:41:41;20.20;71.40
4010;DHT22;2019;48.200;11.548;2022-07-10T07:44:07;20.30;71.40
4010;DHT22;2019;48.200;11.548;2022-07-10T07:46:33;20.40;71.90
4010;DHT22;2019;48.200;11.548;2022-07-10T07:48:58;20.60;71.90
4010;DHT22;2019;48.200;11.548;2022-07-10T07:51:25;20.60;71.10
4010;DHT22;2019;48.200;11.548;2022-07-10T07:53:51;20.60;70.20
4010;DHT22;2019;48.200;11.548;2022-07-10T07:56:16;20.60;69.70
4010;DHT22;2019;48.200;11.548;2022-07-10T07:58:42;20.70;69.80
4010;DHT22;2019;48.200;11.548;2022-07-10T08:01:08;20.70;69.70
4010;DHT22;2019;48.200;11.548;2022-07-10T08:03:33;20.90;69.60
4010;DHT22;2019;48.200;11.548;2022-07-10T08:06:00;21.00;69.40
4010;DHT22;2019;48.200;11.548;2022-07-10T08:08:26;21.00;68.70
4010;DHT22;2019;48.200;11.548;2022-07-10T08:10:51;21.10;68.40
4010;DHT22;2019;48.200;11.548;2022-07-10T08:13:17;21.30;68.70
4010;DHT22;2019;48.200;11.548;2022-07-10T08:15:42;21.30;67.20
4010;DHT22;2019;48.200;11.548;2022-07-10T08:18:08;21.40;66.50
4010;DHT22;2019;48.200;11.548;2022-07-10T08:20:34;21.50;66.70
4010;DHT22;2019;48.200;11.548;2022-07-10T08:23:00;21.60;66.40
4010;DHT22;2019;48.200;11.548;2022-07-10T08:25:27;21.70;65.50
4010;DHT22;2019;48.200;11.548;2022-07-10T08:28:00;21.70;64.90
4010;DHT22;2019;48.200;11.548;2022-07-10T08:30:26;21.80;64.70
4010;DHT22;2019;48.200;11.548;2022-07-10T08:32:52;21.90;64.50
4010;DHT22;2019;48.200;11.548;2022-07-10T08:35:17;21.90;63.80
4010;DHT22;2019;48.200;11.548;2022-07-10T08:37:44;21.90;62.80
4010;DHT22;2019;48.200;11.548;2022-07-10T08:40:12;21.90;62.40
4010;DHT22;2019;48.200;11.548;2022-07-10T08:42:39;21.90;63.10
4010;DHT22;2019;48.200;11.548;2022-07-10T08:45:06;21.90;62.90
4010;DHT22;2019;48.200;11.548;2022-07-10T08:47:34;21.90;62.40
4010;DHT22;2019;48.200;11.548;2022-07-10T08:50:00;21.80;61.90
4010;DHT22;2019;48.200;11.548;2022-07-10T08:52:55;21.70;61.70
4010;DHT22;2019;48.200;11.548;2022-07-10T08:55:24;21.70;61.70
4010;DHT22;2019;48.200;11.548;2022-07-10T08:57:50;21.70;62.30
4010;DHT22;2019;48.200;11.548;2022-07-10T09:00:16;21.90;62.90
4010;DHT22;2019;48.200;11.548;2022-07-10T09:02:42;22.00;62.30
4010;DHT22;2019;48.200;11.548;2022-07-10T09:05:08;22.00;61.40
4010;DHT22;2019;48.200;11.548;2022-07-10T09:07:37;22.00;60.70
4010;DHT22;2019;48.200;11.548;2022-07-10T09:10:10;22.10;60.30
4010;DHT22;2019;48.200;11.548;2022-07-10T09:12:59;22.10;60.10
4010;DHT22;2019;48.200;11.548;2022-07-10T09:15:26;22.30;59.70
4010;DHT22;2019;48.200;11.548;2022-07-10T09:17:56;22.30;59.70
4010;DHT22;2019;48.200;11.548;2022-07-10T09:20:33;22.50;59.60
4010;DHT22;2019;48.200;11.548;2022-07-10T09:23:18;22.50;58.60
4010;DHT22;2019;48.200;11.548;2022-07-10T09:25:48;22.50;58.10
4010;DHT22;2019;48.200;11.548;2022-07-10T09:28:18;22.60;57.80
4010;DHT22;2019;48.200;11.548;2022-07-10T09:30:44;22.70;57.60
4010;DHT22;2019;48.200;11.548;2022-07-10T09:33:26;22.80;57.20
4010;DHT22;2019;48.200;11.548;2022-07-10T09:36:10;22.90;56.80
4010;DHT22;2019;48.200;11.548;2022-07-10T09:41:28;22.90;56.10
4010;DHT22;2019;48.200;11.548;2022-07-10T09:43:59;23.00;56.20
4010;DHT22;2019;48.200;11.548;2022-07-10T09:46:39;23.10;55.80
4010;DHT22;2019;48.200;11.548;2022-07-10T09:49:09;23.20;55.20
4010;DHT22;2019;48.200;11.548;2022-07-10T09:54:06;23.40;55.20
4010;DHT22;2019;48.200;11.548;2022-07-10T09:56:48;23.50;54.70
4010;DHT22;2019;48.200;11.548;2022-07-10T09:59:19;23.60;54.40
4010;DHT22;2019;48.200;11.548;2022-07-10T10:01:50;23.70;54.20
4010;DHT22;2019;48.200;11.548;2022-07-10T10:04:20;23.80;53.40
4010;DHT22;2019;48.200;11.548;2022-07-10T10:06:50;23.70;52.60
4010;DHT22;2019;48.200;11.548;2022-07-10T10:09:23;23.70;51.80
4010;DHT22;2019;48.200;11.548;2022-07-10T10:11:57;23.60;52.00
4010;DHT22;2019;48.200;11.548;2022-07-10T10:14:28;23.70;52.20
4010;DHT22;2019;48.200;11.548;2022-07-10T10:16:56;23.70;52.50
4010;DHT22;2019;48.200;11.548;2022-07-10T10:19:23;23.80;52.50
4010;DHT22;2019;48.200;11.548;2022-07-10T10:22:08;23.90;52.20
4010;DHT22;2019;48.200;11.548;2022-07-10T10:24:35;24.00;52.00
4010;DHT22;2019;48.200;11.548;2022-07-10T10:27:04;24.00;51.50
4010;DHT22;2019;48.200;11.548;2022-07-10T10:29:31;24.10;50.50
4010;DHT22;2019;48.200;11.548;2022-07-10T10:31:57;24.20;50.70
4010;DHT22;2019;48.200;11.548;2022-07-10T10:34:38;24.20;50.60
4010;DHT22;2019;48.200;11.548;2022-07-10T10:37:04;24.20;49.50
4010;DHT22;2019;48.200;11.548;2022-07-10T10:39:51;24.00;49.50
4010;DHT22;2019;48.200;11.548;2022-07-10T10:48:01;24.10;49.50
4010;DHT22;2019;48.200;11.548;2022-07-10T10:50:50;24.10;49.40
4010;DHT22;2019;48.200;11.548;2022-07-10T10:53:22;24.20;48.90
4010;DHT22;2019;48.200;11.548;2022-07-10T10:58:42;24.10;47.70
4010;DHT22;2019;48.200;11.548;2022-07-10T11:06:41;24.00;48.30
4010;DHT22;2019;48.200;11.548;2022-07-10T11:09:29;24.00;48.30
4010;DHT22;2019;48.200;11.548;2022-07-10T11:12:05;24.00;48.30
4010;DHT22;2019;48.200;11.548;2022-07-10T11:14:33;24.00;48.10
4010;DHT22;2019;48.200;11.548;2022-07-10T11:16:59;24.00;47.80
4010;DHT22;2019;48.200;11.548;2022-07-10T11:19:27;24.10;48.20
4010;DHT22;2019;48.200;11.548;2022-07-10T11:25:20;24.40;47.30
4010;DHT22;2019;48.200;11.548;2022-07-10T11:28:07;24.40;47.10
4010;DHT22;2019;48.200;11.548;2022-07-10T11:30:49;24.40;47.10
4010;DHT22;2019;48.200;11.548;2022-07-10T11:33:16;24.30;46.80
4010;DHT22;2019;48.200;11.548;2022-07-10T11:35:46;24.40;47.40
4010;DHT22;2019;48.200;11.548;2022-07-10T11:38:12;24.40;48.10
4010;DHT22;2019;48.200;11.548;2022-07-10T11:40:38;24.50;47.90
4010;DHT22;2019;48.200;11.548;2022-07-10T11:43:04;24.60;48.40
4010;DHT22;2019;48.200;11.548;2022-07-10T11:45:33;24.80;48.30
4010;DHT22;2019;48.200;11.548;2022-07-10T11:48:03;24.90;47.90
4010;DHT22;2019;48.200;11.548;2022-07-10T11:50:34;25.00;46.70
4010;DHT22;2019;48.200;11.548;2022-07-10T11:53:01;24.90;46.00
4010;DHT22;2019;48.200;11.548;2022-07-10T11:55:26;24.80;46.20
4010;DHT22;2019;48.200;11.548;2022-07-10T11:57:54;25.00;46.50
4010;DHT22;2019;48.200;11.548;2022-07-10T12:00:27;25.10;46.60
4010;DHT22;2019;48.200;11.548;2022-07-10T12:02:54;25.30;46.60
4010;DHT22;2019;48.200;11.548;2022-07-10T12:05:37;25.30;46.10
4010;DHT22;2019;48.200;11.548;2022-07-10T12:08:04;25.30;45.70
4010;DHT22;2019;48.200;11.548;2022-07-10T12:10:32;25.30;45.40
4010;DHT22;2019;48.200;11.548;2022-07-10T12:13:09;25.20;44.90
4010;DHT22;2019;48.200;11.548;2022-07-10T12:15:38;25.10;44.90
4010;DHT22;2019;48.200;11.548;2022-07-10T12:18:15;25.10;45.30
4010;DHT22;2019;48.200;11.548;2022-07-10T12:20:42;25.10;45.10
4010;DHT22;2019;48.200;11.548;2022-07-10T12:23:11;25.00;45.20
4010;DHT22;2019;48.200;11.548;2022-07-10T12:25:41;25.00;45.90
4010;DHT22;2019;48.200;11.548;2022-07-10T12:28:06;25.10;45.50
4010;DHT22;2019;48.200;11.548;2022-07-10T12:30:38;25.00;45.30
4010;DHT22;2019;48.200;11.548;2022-07-10T12:33:12;25.10;45.20
4010;DHT22;2019;48.200;11.548;2022-07-10T12:35:57;25.20;45.10
4010;DHT22;2019;48.200;11.548;2022-07-10T12:38:30;25.30;44.60
4010;DHT22;2019;48.200;11.548;2022-07-10T12:41:07;25.20;44.80
4010;DHT22;2019;48.200;11.548;2022-07-10T12:43:34;25.20;43.70
4010;DHT22;2019;48.200;11.548;2022-07-10T12:46:16;25.10;44.00
4010;DHT22;2019;48.200;11.548;2022-07-10T12:48:59;25.20;44.10
4010;DHT22;2019;48.200;11.548;2022-07-10T12:51:27;25.30;44.10
4010;DHT22;2019;48.200;11.548;2022-07-10T12:53:54;25.30;43.70
4010;DHT22;2019;48.200;11.548;2022-07-10T12:56:32;25.30;43.50
4010;DHT22;2019;48.200;11.548;2022-07-10T12:58:59;25.30;42.90
4010;DHT22;2019;48.200;11.548;2022-07-10T13:01:29;25.30;43.10
4010;DHT22;2019;48.200;11.548;2022-07-10T13:04:04;25.20;43.20
4010;DHT22;2019;48.200;11.548;2022-07-10T13:06:31;25.30;43.60
4010;DHT22;2019;48.200;11.548;2022-07-10T13:08:57;25.30;42.90
4010;DHT22;2019;48.200;11.548;2022-07-10T13:11:24;25.40;43.20
4010;DHT22;2019;48.200;11.548;2022-07-10T13:13:50;25.50;43.30
4010;DHT22;2019;48.200;11.548;2022-07-10T13:16:16;25.60;43.80
4010;DHT22;2019;48.200;11.548;2022-07-10T13:18:44;25.70;43.00
4010;DHT22;2019;48.200;11.548;2022-07-10T13:21:11;25.80;42.80
4010;DHT22;2019;48.200;11.548;2022-07-10T13:23:37;25.80;42.20
4010;DHT22;2019;48.200;11.548;2022-07-10T13:26:04;25.80;41.90
4010;DHT22;2019;48.200;11.548;2022-07-10T13:28:32;25.80;41.60
4010;DHT22;2019;48.200;11.548;2022-07-10T13:30:59;25.80;42.40
4010;DHT22;2019;48.200;11.548;2022-07-10T13:33:25;25.80;41.90
4010;DHT22;2019;48.200;11.548;2022-07-10T13:35:53;25.90;41.80
4010;DHT22;2019;48.200;11.548;2022-07-10T13:38:22;26.00;41.20
4010;DHT22;2019;48.200;11.548;2022-07-10T13:40:50;25.90;40.90
4010;DHT22;2019;48.200;11.548;2022-07-10T13:43:16;25.90;41.20
4010;DHT22;2019;48.200;11.548;2022-07-10T13:45:42;25.80;40.80
4010;DHT22;2019;48.200;11.548;2022-07-10T13:48:15;25.80;40.70
4010;DHT22;2019;48.200;11.548;2022-07-10T13:50:43;25.80;40.60
4010;DHT22;2019;48.200;11.548;2022-07-10T13:53:09;25.70;40.50
4010;DHT22;2019;48.200;11.548;2022-07-10T13:55:35;25.80;40.20
4010;DHT22;2019;48.200;11.548;2022-07-10T13:58:01;25.80;40.80
4010;DHT22;2019;48.200;11.548;2022-07-10T14:00:27;25.80;40.40
4010;DHT22;2019;48.200;11.548;2022-07-10T14:02:52;25.80;39.90
4010;DHT22;2019;48.200;11.548;2022-07-10T14:05:23;25.80;39.80
4010;DHT22;2019;48.200;11.548;2022-07-10T14:07:49;25.80;39.80
4010;DHT22;2019;48.200;11.548;2022-07-10T14:10:15;25.80;39.80
4010;DHT22;2019;48.200;11.548;2022-07-10T14:12:41;25.70;39.80
4010;DHT22;2019;48.200;11.548;2022-07-10T14:15:07;25.70;39.50
4010;DHT22;2019;48.200;11.548;2022-07-10T14:17:33;25.70;39.80
4010;DHT22;2019;48.200;11.548;2022-07-10T14:19:59;25.70;39.70
4010;DHT22;2019;48.200;11.548;2022-07-10T14:22:24;25.60;39.40
4010;DHT22;2019;48.200;11.548;2022-07-10T14:24:50;25.60;39.30
4010;DHT22;2019;48.200;11.548;2022-07-10T14:27:17;25.60;39.70
4010;DHT22;2019;48.200;11.548;2022-07-10T14:29:42;25.60;39.70
4010;DHT22;2019;48.200;11.548;2022-07-10T14:32:08;25.60;39.80
4010;DHT22;2019;48.200;11.548;2022-07-10T14:34:34;25.60;39.60
4010;DHT22;2019;48.200;11.548;2022-07-10T14:37:00;25.60;39.70
4010;DHT22;2019;48.200;11.548;2022-07-10T14:39:26;25.60;39.60
4010;DHT22;2019;48.200;11.548;2022-07-10T14:41:51;25.60;39.30
4010;DHT22;2019;48.200;11.548;2022-07-10T14:44:17;25.60;39.30
4010;DHT22;2019;48.200;11.548;2022-07-10T14:46:43;25.60;39.40
4010;DHT22;2019;48.200;11.548;2022-07-10T14:49:09;25.60;39.80
4010;DHT22;2019;48.200;11.548;2022-07-10T14:51:35;25.60;38.90
4010;DHT22;2019;48.200;11.548;2022-07-10T14:54:01;25.60;38.90
4010;DHT22;2019;48.200;11.548;2022-07-10T14:56:27;25.60;38.60
4010;DHT22;2019;48.200;11.548;2022-07-10T14:58:52;25.50;38.00
4010;DHT22;2019;48.200;11.548;2022-07-10T15:01:18;25.50;38.90
4010;DHT22;2019;48.200;11.548;2022-07-10T15:03:44;25.50;39.00
4010;DHT22;2019;48.200;11.548;2022-07-10T15:06:10;25.40;38.40
4010;DHT22;2019;48.200;11.548;2022-07-10T15:08:35;25.40;38.40
4010;DHT22;2019;48.200;11.548;2022-07-10T15:11:01;25.40;38.60
4010;DHT22;2019;48.200;11.548;2022-07-10T15:13:28;25.40;38.80
4010;DHT22;2019;48.200;11.548;2022-07-10T15:15:54;25.40;38.60
4010;DHT22;2019;48.200;11.548;2022-07-10T15:18:20;25.30;38.30
4010;DHT22;2019;48.200;11.548;2022-07-10T15:20:46;25.30;38.50
4010;DHT22;2019;48.200;11.548;2022-07-10T15:23:12;25.30;38.60
4010;DHT22;2019;48.200;11.548;2022-07-10T15:25:39;25.30;38.50
4010;DHT22;2019;48.200;11.548;2022-07-10T15:28:06;25.30;38.20
4010;DHT22;2019;48.200;11.548;2022-07-10T15:30:33;25.20;37.80
4010;DHT22;2019;48.200;11.548;2022-07-10T15:32:59;25.20;37.70
4010;DHT22;2019;48.200;11.548;2022-07-10T15:35:24;25.10;37.70
4010;DHT22;2019;48.200;11.548;2022-07-10T15:37:50;25.10;37.70
4010;DHT22;2019;48.200;11.548;2022-07-10T15:40:16;25.00;37.80
4010;DHT22;2019;48.200;11.548;2022-07-10T15:42:42;25.00;37.90
4010;DHT22;2019;48.200;11.548;2022-07-10T15:45:08;25.00;37.80
4010;DHT22;2019;48.200;11.548;2022-07-10T15:47:33;24.90;37.70
4010;DHT22;2019;48.200;11.548;2022-07-10T15:49:59;24.90;37.80
4010;DHT22;2019;48.200;11.548;2022-07-10T15:52:25;24.90;37.90
4010;DHT22;2019;48.200;11.548;2022-07-10T15:54:50;24.90;37.90
4010;DHT22;2019;48.200;11.548;2022-07-10T15:57:16;24.80;37.60
4010;DHT22;2019;48.200;11.548;2022-07-10T15:59:42;24.80;37.80
4010;DHT22;2019;48.200;11.548;2022-07-10T16:02:08;24.80;38.00
4010;DHT22;2019;48.200;11.548;2022-07-10T16:04:36;24.80;38.10
4010;DHT22;2019;48.200;11.548;2022-07-10T16:07:04;24.80;38.20
4010;DHT22;2019;48.200;11.548;2022-07-10T16:09:30;24.80;38.30